sensor_id;sensor_type;location;lat;lon;timestamp;P1;durP1;ratioP1;P2;durP2;ratioP2
16101;SDS011;56411;52.964;10.540;2023-11-22T00:01:01;12.43;;;4.67;;
16101;SDS011;56411;52.964;10.540;2023-11-22T00:03:29;12.07;;;4.87;;
16101;SDS011;56411;52.964;10.540;2023-11-22T00:05:56;12.27;;;4.73;;
16101;SDS011;56411;52.964;10.540;2023-11-22T00:08:23;12.20;;;5.40;;
16101;SDS011;56411;52.964;10.540;2023-11-22T00:10:52;12.77;;;5.17;;
16101;SDS011;56411;52.964;10.540;2023-11-22T00:13:19;10.73;;;4.60;;
16101;SDS011;56411;52.964;10.540;2023-11-22T00:15:46;12.17;;;5.07;;
16101;SDS011;56411;52.964;10.540;2023-11-22T00:18:15;13.60;;;4.93;;
16101;SDS011;56411;52.964;10.540;2023-11-22T00:20:42;10.43;;;4.73;;
16101;SDS011;56411;52.964;10.540;2023-11-22T00:23:12;13.60;;;4.80;;
16101;SDS011;56411;52.964;10.540;2023-11-22T00:25:39;14.23;;;5.27;;
16101;SDS011;56411;52.964;10.540;2023-11-22T00:28:08;14.23;;;5.37;;
16101;SDS011;56411;52.964;10.540;2023-11-22T00:30:36;13.97;;;5.03;;
16101;SDS011;56411;52.964;10.540;2023-11-22T00:33:03;12.73;;;5.23;;
16101;SDS011;56411;52.964;10.540;2023-11-22T00:35:31;13.23;;;4.90;;
16101;SDS011;56411;52.964;10.540;2023-11-22T00:37:58;14.43;;;5.80;;
16101;SDS011;56411;52.964;10.540;2023-11-22T00:40:25;13.17;;;5.50;;
16101;SDS011;56411;52.964;10.540;2023-11-22T00:42:52;12.70;;;5.83;;
16101;SDS011;56411;52.964;10.540;2023-11-22T00:45:21;17.23;;;7.77;;
16101;SDS011;56411;52.964;10.540;2023-11-22T00:47:48;13.73;;;5.87;;
16101;SDS011;56411;52.964;10.540;2023-11-22T00:50:15;13.53;;;5.47;;
16101;SDS011;56411;52.964;10.540;2023-11-22T00:52:44;13.10;;;5.93;;
16101;SDS011;56411;52.964;10.540;2023-11-22T00:55:12;14.40;;;5.87;;
16101;SDS011;56411;52.964;10.540;2023-11-22T00:57:39;14.57;;;5.57;;
16101;SDS011;56411;52.964;10.540;2023-11-22T01:00:07;13.17;;;5.20;;
16101;SDS011;56411;52.964;10.540;2023-11-22T01:02:38;14.00;;;5.80;;
16101;SDS011;56411;52.964;10.540;2023-11-22T01:05:05;15.57;;;5.53;;
16101;SDS011;56411;52.964;10.540;2023-11-22T01:07:36;12.93;;;5.40;;
16101;SDS011;56411;52.964;10.540;2023-11-22T01:10:03;12.63;;;5.00;;
16101;SDS011;56411;52.964;10.540;2023-11-22T01:12:31;12.70;;;5.03;;
16101;SDS011;56411;52.964;10.540;2023-11-22T01:14:58;11.87;;;5.27;;
16101;SDS011;56411;52.964;10.540;2023-11-22T01:17:25;15.73;;;5.80;;
16101;SDS011;56411;52.964;10.540;2023-11-22T01:19:54;11.50;;;5.03;;
16101;SDS011;56411;52.964;10.540;2023-11-22T01:22:21;15.70;;;5.20;;
16101;SDS011;56411;52.964;10.540;2023-11-22T01:24:48;13.07;;;5.40;;
16101;SDS011;56411;52.964;10.540;2023-11-22T01:27:15;16.77;;;5.30;;
16101;SDS011;56411;52.964;10.540;2023-11-22T01:29:42;14.17;;;5.37;;
16101;SDS011;56411;52.964;10.540;2023-11-22T01:32:09;12.77;;;5.17;;
16101;SDS011;56411;52.964;10.540;2023-11-22T01:34:36;13.47;;;5.30;;
16101;SDS011;56411;52.964;10.540;2023-11-22T01:37:05;14.43;;;4.50;;
16101;SDS011;56411;52.964;10.540;2023-11-22T01:39:32;13.90;;;4.90;;
16101;SDS011;56411;52.964;10.540;2023-11-22T01:41:59;12.37;;;4.83;;
16101;SDS011;56411;52.964;10.540;2023-11-22T01:44:26;11.70;;;5.20;;
16101;SDS011;56411;52.964;10.540;2023-11-22T01:46:53;10.73;;;4.70;;
16101;SDS011;56411;52.964;10.540;2023-11-22T01:49:20;12.37;;;5.03;;
16101;SDS011;56411;52.964;10.540;2023-11-22T01:51:48;11.73;;;4.70;;
16101;SDS011;56411;52.964;10.540;2023-11-22T01:54:17;11.77;;;5.20;;
16101;SDS011;56411;52.964;10.540;2023-11-22T01:56:46;12.93;;;5.03;;
16101;SDS011;56411;52.964;10.540;2023-11-22T01:59:14;12.53;;;4.60;;
16101;SDS011;56411;52.964;10.540;2023-11-22T02:01:42;11.60;;;4.70;;
16101;SDS011;56411;52.964;10.540;2023-11-22T02:04:10;11.97;;;4.77;;
16101;SDS011;56411;52.964;10.540;2023-11-22T02:06:39;11.07;;;4.77;;
16101;SDS011;56411;52.964;10.540;2023-11-22T02:09:06;10.90;;;4.50;;
16101;SDS011;56411;52.964;10.540;2023-11-22T02:11:40;11.60;;;4.47;;
16101;SDS011;56411;52.964;10.540;2023-11-22T02:14:07;10.13;;;4.43;;
16101;SDS011;56411;52.964;10.540;2023-11-22T02:16:34;11.47;;;4.37;;
16101;SDS011;56411;52.964;10.540;2023-11-22T02:19:03;11.67;;;4.77;;
16101;SDS011;56411;52.964;10.540;2023-11-22T02:21:32;12.60;;;4.80;;
16101;SDS011;56411;52.964;10.540;2023-11-22T02:24:01;13.80;;;4.50;;
16101;SDS011;56411;52.964;10.540;2023-11-22T02:26:28;10.37;;;4.47;;
16101;SDS011;56411;52.964;10.540;2023-11-22T02:28:56;12.03;;;4.57;;
16101;SDS011;56411;52.964;10.540;2023-11-22T02:31:24;9.90;;;4.20;;
16101;SDS011;56411;52.964;10.540;2023-11-22T02:33:52;12.90;;;4.77;;
16101;SDS011;56411;52.964;10.540;2023-11-22T02:36:20;12.43;;;4.83;;
16101;SDS011;56411;52.964;10.540;2023-11-22T02:38:50;12.17;;;4.57;;
16101;SDS011;56411;52.964;10.540;2023-11-22T02:41:18;13.03;;;4.80;;
16101;SDS011;56411;52.964;10.540;2023-11-22T02:43:45;11.63;;;4.60;;
16101;SDS011;56411;52.964;10.540;2023-11-22T02:46:12;11.53;;;4.90;;
16101;SDS011;56411;52.964;10.540;2023-11-22T02:48:39;11.73;;;4.90;;
16101;SDS011;56411;52.964;10.540;2023-11-22T02:51:06;12.17;;;4.63;;
16101;SDS011;56411;52.964;10.540;2023-11-22T02:53:33;11.13;;;4.50;;
16101;SDS011;56411;52.964;10.540;2023-11-22T02:56:01;11.60;;;4.50;;
16101;SDS011;56411;52.964;10.540;2023-11-22T02:58:29;12.03;;;4.83;;
16101;SDS011;56411;52.964;10.540;2023-11-22T03:00:56;10.47;;;4.57;;
16101;SDS011;56411;52.964;10.540;2023-11-22T03:03:23;11.67;;;4.83;;
16101;SDS011;56411;52.964;10.540;2023-11-22T03:05:51;10.90;;;4.47;;
16101;SDS011;56411;52.964;10.540;2023-11-22T03:08:18;10.27;;;4.33;;
16101;SDS011;56411;52.964;10.540;2023-11-22T03:10:45;12.03;;;4.83;;
16101;SDS011;56411;52.964;10.540;2023-11-22T03:13:11;11.10;;;4.60;;
16101;SDS011;56411;52.964;10.540;2023-11-22T03:15:40;9.43;;;4.30;;
16101;SDS011;56411;52.964;10.540;2023-11-22T03:18:07;9.77;;;4.10;;
16101;SDS011;56411;52.964;10.540;2023-11-22T03:20:36;10.57;;;4.43;;
16101;SDS011;56411;52.964;10.540;2023-11-22T03:23:03;10.30;;;4.33;;
16101;SDS011;56411;52.964;10.540;2023-11-22T03:25:30;10.50;;;4.40;;
16101;SDS011;56411;52.964;10.540;2023-11-22T03:27:57;11.40;;;4.27;;
16101;SDS011;56411;52.964;10.540;2023-11-22T03:30:24;12.13;;;4.60;;
16101;SDS011;56411;52.964;10.540;2023-11-22T03:32:52;12.23;;;4.47;;
16101;SDS011;56411;52.964;10.540;2023-11-22T03:35:20;10.70;;;4.57;;
16101;SDS011;56411;52.964;10.540;2023-11-22T03:37:47;10.73;;;4.23;;
16101;SDS011;56411;52.964;10.540;2023-11-22T03:40:14;11.47;;;4.63;;
16101;SDS011;56411;52.964;10.540;2023-11-22T03:42:41;11.70;;;4.20;;
16101;SDS011;56411;52.964;10.540;2023-11-22T03:45:09;10.77;;;4.50;;
16101;SDS011;56411;52.964;10.540;2023-11-22T03:47:37;11.97;;;4.57;;
16101;SDS011;56411;52.964;10.540;2023-11-22T03:50:06;9.87;;;4.00;;
16101;SDS011;56411;52.964;10.540;2023-11-22T03:52:35;10.60;;;4.50;;
16101;SDS011;56411;52.964;10.540;2023-11-22T03:55:03;10.47;;;4.60;;
16101;SDS011;56411;52.964;10.540;2023-11-22T03:57:30;10.60;;;4.63;;
16101;SDS011;56411;52.964;10.540;2023-11-22T03:59:57;12.90;;;5.00;;
16101;SDS011;56411;52.964;10.540;2023-11-22T04:02:24;10.97;;;4.90;;
16101;SDS011;56411;52.964;10.540;2023-11-22T04:04:52;12.70;;;4.77;;
16101;SDS011;56411;52.964;10.540;2023-11-22T04:07:21;13.17;;;4.77;;
16101;SDS011;56411;52.964;10.540;2023-11-22T04:09:48;13.37;;;4.80;;
16101;SDS011;56411;52.964;10.540;2023-11-22T04:12:15;12.73;;;4.90;;
16101;SDS011;56411;52.964;10.540;2023-11-22T04:14:42;11.63;;;5.33;;
16101;SDS011;56411;52.964;10.540;2023-11-22T04:17:10;12.77;;;5.23;;
16101;SDS011;56411;52.964;10.540;2023-11-22T04:19:37;12.67;;;5.77;;
16101;SDS011;56411;52.964;10.540;2023-11-22T04:22:04;13.30;;;5.70;;
16101;SDS011;56411;52.964;10.540;2023-11-22T04:24:32;12.73;;;5.33;;
16101;SDS011;56411;52.964;10.540;2023-11-22T04:27:00;11.57;;;5.00;;
16101;SDS011;56411;52.964;10.540;2023-11-22T04:29:28;11.57;;;5.57;;
16101;SDS011;56411;52.964;10.540;2023-11-22T04:31:55;12.97;;;4.90;;
16101;SDS011;56411;52.964;10.540;2023-11-22T04:34:22;11.33;;;5.13;;
16101;SDS011;56411;52.964;10.540;2023-11-22T04:36:49;13.13;;;4.97;;
16101;SDS011;56411;52.964;10.540;2023-11-22T04:39:16;13.37;;;5.40;;
16101;SDS011;56411;52.964;10.540;2023-11-22T04:41:44;10.50;;;4.57;;
16101;SDS011;56411;52.964;10.540;2023-11-22T04:44:12;14.13;;;5.13;;
16101;SDS011;56411;52.964;10.540;2023-11-22T04:46:39;22.53;;;9.43;;
16101;SDS011;56411;52.964;10.540;2023-11-22T04:49:06;27.93;;;11.60;;
16101;SDS011;56411;52.964;10.540;2023-11-22T04:51:33;19.23;;;8.17;;
16101;SDS011;56411;52.964;10.540;2023-11-22T04:54:00;15.97;;;6.53;;
16101;SDS011;56411;52.964;10.540;2023-11-22T04:56:27;16.50;;;6.20;;
16101;SDS011;56411;52.964;10.540;2023-11-22T04:58:56;14.80;;;6.03;;
16101;SDS011;56411;52.964;10.540;2023-11-22T05:01:23;12.57;;;5.63;;
16101;SDS011;56411;52.964;10.540;2023-11-22T05:03:50;13.33;;;5.90;;
16101;SDS011;56411;52.964;10.540;2023-11-22T05:06:17;12.77;;;5.63;;
16101;SDS011;56411;52.964;10.540;2023-11-22T05:08:45;13.90;;;6.13;;
16101;SDS011;56411;52.964;10.540;2023-11-22T05:11:12;15.00;;;6.30;;
16101;SDS011;56411;52.964;10.540;2023-11-22T05:13:40;17.60;;;7.37;;
16101;SDS011;56411;52.964;10.540;2023-11-22T05:16:09;18.00;;;7.67;;
16101;SDS011;56411;52.964;10.540;2023-11-22T05:18:37;16.77;;;7.00;;
16101;SDS011;56411;52.964;10.540;2023-11-22T05:21:04;18.67;;;8.00;;
16101;SDS011;56411;52.964;10.540;2023-11-22T05:23:31;16.60;;;7.57;;
16101;SDS011;56411;52.964;10.540;2023-11-22T05:26:02;18.40;;;8.97;;
16101;SDS011;56411;52.964;10.540;2023-11-22T05:28:30;21.03;;;10.67;;
16101;SDS011;56411;52.964;10.540;2023-11-22T05:30:57;19.50;;;9.80;;
16101;SDS011;56411;52.964;10.540;2023-11-22T05:33:25;18.87;;;8.63;;
16101;SDS011;56411;52.964;10.540;2023-11-22T05:35:52;20.43;;;8.03;;
16101;SDS011;56411;52.964;10.540;2023-11-22T05:38:19;28.57;;;11.83;;
16101;SDS011;56411;52.964;10.540;2023-11-22T05:40:46;38.10;;;17.20;;
16101;SDS011;56411;52.964;10.540;2023-11-22T05:43:13;55.07;;;25.00;;
16101;SDS011;56411;52.964;10.540;2023-11-22T05:45:40;55.83;;;25.43;;
16101;SDS011;56411;52.964;10.540;2023-11-22T05:48:07;50.40;;;22.50;;
16101;SDS011;56411;52.964;10.540;2023-11-22T05:50:36;39.93;;;17.90;;
16101;SDS011;56411;52.964;10.540;2023-11-22T05:53:03;38.37;;;17.07;;
16101;SDS011;56411;52.964;10.540;2023-11-22T05:55:29;38.60;;;17.70;;
16101;SDS011;56411;52.964;10.540;2023-11-22T05:57:57;36.67;;;17.50;;
16101;SDS011;56411;52.964;10.540;2023-11-22T06:00:24;41.43;;;18.87;;
16101;SDS011;56411;52.964;10.540;2023-11-22T06:02:53;19.50;;;9.13;;
16101;SDS011;56411;52.964;10.540;2023-11-22T06:05:20;14.03;;;7.17;;
16101;SDS011;56411;52.964;10.540;2023-11-22T06:07:49;17.80;;;7.67;;
16101;SDS011;56411;52.964;10.540;2023-11-22T06:10:16;51.50;;;22.73;;
16101;SDS011;56411;52.964;10.540;2023-11-22T06:12:43;45.83;;;23.13;;
16101;SDS011;56411;52.964;10.540;2023-11-22T06:15:10;37.73;;;18.03;;
16101;SDS011;56411;52.964;10.540;2023-11-22T06:17:38;28.87;;;13.20;;
16101;SDS011;56411;52.964;10.540;2023-11-22T06:20:05;26.07;;;12.53;;
16101;SDS011;56411;52.964;10.540;2023-11-22T06:22:33;32.17;;;13.37;;
16101;SDS011;56411;52.964;10.540;2023-11-22T06:25:07;30.90;;;13.23;;
16101;SDS011;56411;52.964;10.540;2023-11-22T06:27:35;31.27;;;13.90;;
16101;SDS011;56411;52.964;10.540;2023-11-22T06:30:03;29.43;;;11.97;;
16101;SDS011;56411;52.964;10.540;2023-11-22T06:32:32;26.87;;;11.93;;
16101;SDS011;56411;52.964;10.540;2023-11-22T06:34:59;28.77;;;12.03;;
16101;SDS011;56411;52.964;10.540;2023-11-22T06:37:26;23.30;;;10.83;;
16101;SDS011;56411;52.964;10.540;2023-11-22T06:39:53;23.60;;;11.97;;
16101;SDS011;56411;52.964;10.540;2023-11-22T06:42:23;35.10;;;16.53;;
16101;SDS011;56411;52.964;10.540;2023-11-22T06:44:50;34.27;;;16.87;;
16101;SDS011;56411;52.964;10.540;2023-11-22T06:47:18;31.67;;;14.97;;
16101;SDS011;56411;52.964;10.540;2023-11-22T06:49:45;30.20;;;14.57;;
16101;SDS011;56411;52.964;10.540;2023-11-22T06:52:12;30.97;;;15.03;;
16101;SDS011;56411;52.964;10.540;2023-11-22T06:54:39;29.80;;;13.53;;
16101;SDS011;56411;52.964;10.540;2023-11-22T06:57:06;29.17;;;13.57;;
16101;SDS011;56411;52.964;10.540;2023-11-22T06:59:35;27.13;;;12.23;;
16101;SDS011;56411;52.964;10.540;2023-11-22T07:02:02;27.17;;;12.27;;
16101;SDS011;56411;52.964;10.540;2023-11-22T07:04:29;27.00;;;12.30;;
16101;SDS011;56411;52.964;10.540;2023-11-22T07:06:57;24.83;;;11.50;;
16101;SDS011;56411;52.964;10.540;2023-11-22T07:09:24;22.90;;;9.80;;
16101;SDS011;56411;52.964;10.540;2023-11-22T07:11:51;22.27;;;8.17;;
16101;SDS011;56411;52.964;10.540;2023-11-22T07:14:19;18.73;;;7.33;;
16101;SDS011;56411;52.964;10.540;2023-11-22T07:16:48;18.37;;;7.47;;
16101;SDS011;56411;52.964;10.540;2023-11-22T07:19:15;19.87;;;7.77;;
16101;SDS011;56411;52.964;10.540;2023-11-22T07:21:44;22.27;;;9.30;;
16101;SDS011;56411;52.964;10.540;2023-11-22T07:24:13;23.37;;;10.00;;
16101;SDS011;56411;52.964;10.540;2023-11-22T07:26:40;25.13;;;11.73;;
16101;SDS011;56411;52.964;10.540;2023-11-22T07:29:08;28.27;;;11.37;;
16101;SDS011;56411;52.964;10.540;2023-11-22T07:31:37;21.20;;;9.90;;
16101;SDS011;56411;52.964;10.540;2023-11-22T07:34:05;23.27;;;9.57;;
16101;SDS011;56411;52.964;10.540;2023-11-22T07:36:34;26.97;;;10.73;;
16101;SDS011;56411;52.964;10.540;2023-11-22T07:39:03;21.47;;;9.57;;
16101;SDS011;56411;52.964;10.540;2023-11-22T07:41:30;24.97;;;10.30;;
16101;SDS011;56411;52.964;10.540;2023-11-22T07:44:00;23.40;;;10.80;;
16101;SDS011;56411;52.964;10.540;2023-11-22T07:46:27;27.40;;;9.63;;
16101;SDS011;56411;52.964;10.540;2023-11-22T07:48:54;21.33;;;8.63;;
16101;SDS011;56411;52.964;10.540;2023-11-22T07:51:22;16.93;;;6.93;;
16101;SDS011;56411;52.964;10.540;2023-11-22T07:53:50;16.23;;;7.27;;
16101;SDS011;56411;52.964;10.540;2023-11-22T07:56:18;18.87;;;7.80;;
16101;SDS011;56411;52.964;10.540;2023-11-22T07:58:45;17.90;;;7.13;;
16101;SDS011;56411;52.964;10.540;2023-11-22T08:01:12;17.30;;;7.30;;
16101;SDS011;56411;52.964;10.540;2023-11-22T08:03:39;15.83;;;7.07;;
16101;SDS011;56411;52.964;10.540;2023-11-22T08:06:10;17.43;;;6.83;;
16101;SDS011;56411;52.964;10.540;2023-11-22T08:08:39;17.20;;;7.07;;
16101;SDS011;56411;52.964;10.540;2023-11-22T08:11:06;18.93;;;7.00;;
16101;SDS011;56411;52.964;10.540;2023-11-22T08:13:40;17.90;;;7.33;;
16101;SDS011;56411;52.964;10.540;2023-11-22T08:16:08;17.40;;;7.30;;
16101;SDS011;56411;52.964;10.540;2023-11-22T08:18:35;17.67;;;7.90;;
16101;SDS011;56411;52.964;10.540;2023-11-22T08:21:02;21.17;;;9.30;;
16101;SDS011;56411;52.964;10.540;2023-11-22T08:23:30;18.30;;;8.60;;
16101;SDS011;56411;52.964;10.540;2023-11-22T08:26:00;18.37;;;8.60;;
16101;SDS011;56411;52.964;10.540;2023-11-22T08:28:27;17.57;;;7.40;;
16101;SDS011;56411;52.964;10.540;2023-11-22T08:30:55;15.57;;;6.70;;
16101;SDS011;56411;52.964;10.540;2023-11-22T08:33:22;15.37;;;7.10;;
16101;SDS011;56411;52.964;10.540;2023-11-22T08:35:49;15.47;;;6.53;;
16101;SDS011;56411;52.964;10.540;2023-11-22T08:38:23;16.30;;;6.93;;
16101;SDS011;56411;52.964;10.540;2023-11-22T08:40:50;19.13;;;8.30;;
16101;SDS011;56411;52.964;10.540;2023-11-22T08:43:19;18.43;;;7.80;;
16101;SDS011;56411;52.964;10.540;2023-11-22T08:45:48;18.60;;;8.27;;
16101;SDS011;56411;52.964;10.540;2023-11-22T08:48:15;17.43;;;7.83;;
16101;SDS011;56411;52.964;10.540;2023-11-22T08:50:43;18.73;;;8.20;;
16101;SDS011;56411;52.964;10.540;2023-11-22T08:53:12;18.90;;;8.63;;
16101;SDS011;56411;52.964;10.540;2023-11-22T08:55:40;18.93;;;9.17;;
16101;SDS011;56411;52.964;10.540;2023-11-22T08:58:08;18.03;;;8.33;;
16101;SDS011;56411;52.964;10.540;2023-11-22T09:00:37;16.83;;;8.10;;
16101;SDS011;56411;52.964;10.540;2023-11-22T09:03:06;16.53;;;7.50;;
16101;SDS011;56411;52.964;10.540;2023-11-22T09:05:34;17.63;;;7.67;;
16101;SDS011;56411;52.964;10.540;2023-11-22T09:08:01;15.90;;;7.50;;
16101;SDS011;56411;52.964;10.540;2023-11-22T09:10:29;17.47;;;8.13;;
16101;SDS011;56411;52.964;10.540;2023-11-22T09:12:57;21.83;;;9.93;;
16101;SDS011;56411;52.964;10.540;2023-11-22T09:15:25;18.67;;;9.10;;
16101;SDS011;56411;52.964;10.540;2023-11-22T09:17:55;17.80;;;8.47;;
16101;SDS011;56411;52.964;10.540;2023-11-22T09:20:23;17.70;;;8.27;;
16101;SDS011;56411;52.964;10.540;2023-11-22T09:22:50;18.13;;;9.10;;
16101;SDS011;56411;52.964;10.540;2023-11-22T09:25:19;18.60;;;9.17;;
16101;SDS011;56411;52.964;10.540;2023-11-22T09:27:48;20.43;;;8.87;;
16101;SDS011;56411;52.964;10.540;2023-11-22T09:30:18;18.23;;;8.67;;
16101;SDS011;56411;52.964;10.540;2023-11-22T09:32:58;20.23;;;10.37;;
16101;SDS011;56411;52.964;10.540;2023-11-22T09:35:26;20.57;;;9.93;;
16101;SDS011;56411;52.964;10.540;2023-11-22T09:37:54;18.00;;;9.60;;
16101;SDS011;56411;52.964;10.540;2023-11-22T09:40:22;18.77;;;9.43;;
16101;SDS011;56411;52.964;10.540;2023-11-22T09:42:49;19.90;;;9.03;;
16101;SDS011;56411;52.964;10.540;2023-11-22T09:45:18;17.13;;;8.10;;
16101;SDS011;56411;52.964;10.540;2023-11-22T09:47:46;17.67;;;7.70;;
16101;SDS011;56411;52.964;10.540;2023-11-22T09:50:16;16.83;;;7.40;;
16101;SDS011;56411;52.964;10.540;2023-11-22T09:52:46;15.77;;;7.50;;
16101;SDS011;56411;52.964;10.540;2023-11-22T09:55:19;13.97;;;6.60;;
16101;SDS011;56411;52.964;10.540;2023-11-22T09:57:48;15.30;;;6.53;;
16101;SDS011;56411;52.964;10.540;2023-11-22T10:00:16;13.43;;;6.43;;
16101;SDS011;56411;52.964;10.540;2023-11-22T10:02:46;13.70;;;6.23;;
16101;SDS011;56411;52.964;10.540;2023-11-22T10:05:14;13.30;;;6.10;;
16101;SDS011;56411;52.964;10.540;2023-11-22T10:07:44;13.60;;;5.60;;
16101;SDS011;56411;52.964;10.540;2023-11-22T10:10:13;12.03;;;5.40;;
16101;SDS011;56411;52.964;10.540;2023-11-22T10:12:43;13.67;;;5.43;;
16101;SDS011;56411;52.964;10.540;2023-11-22T10:15:11;11.80;;;5.47;;
16101;SDS011;56411;52.964;10.540;2023-11-22T10:17:39;14.47;;;5.50;;
16101;SDS011;56411;52.964;10.540;2023-11-22T10:20:07;11.20;;;5.20;;
16101;SDS011;56411;52.964;10.540;2023-11-22T10:22:45;11.73;;;5.10;;
16101;SDS011;56411;52.964;10.540;2023-11-22T10:25:14;11.73;;;5.43;;
16101;SDS011;56411;52.964;10.540;2023-11-22T10:27:44;11.93;;;5.60;;
16101;SDS011;56411;52.964;10.540;2023-11-22T10:30:12;12.40;;;4.83;;
16101;SDS011;56411;52.964;10.540;2023-11-22T10:32:40;10.03;;;4.37;;
16101;SDS011;56411;52.964;10.540;2023-11-22T10:35:07;11.57;;;5.13;;
16101;SDS011;56411;52.964;10.540;2023-11-22T10:37:35;11.97;;;4.53;;
16101;SDS011;56411;52.964;10.540;2023-11-22T10:40:04;10.60;;;4.50;;
16101;SDS011;56411;52.964;10.540;2023-11-22T10:42:34;13.27;;;5.43;;
16101;SDS011;56411;52.964;10.540;2023-11-22T10:45:02;11.10;;;4.80;;
16101;SDS011;56411;52.964;10.540;2023-11-22T10:47:32;11.03;;;4.97;;
16101;SDS011;56411;52.964;10.540;2023-11-22T10:50:03;11.37;;;4.97;;
16101;SDS011;56411;52.964;10.540;2023-11-22T10:52:33;12.40;;;6.20;;
16101;SDS011;56411;52.964;10.540;2023-11-22T10:55:03;11.00;;;5.00;;
16101;SDS011;56411;52.964;10.540;2023-11-22T10:57:32;10.93;;;5.30;;
16101;SDS011;56411;52.964;10.540;2023-11-22T11:00:03;11.30;;;4.90;;
16101;SDS011;56411;52.964;10.540;2023-11-22T11:02:33;10.90;;;5.27;;
16101;SDS011;56411;52.964;10.540;2023-11-22T11:05:07;12.80;;;4.87;;
16101;SDS011;56411;52.964;10.540;2023-11-22T11:07:41;11.93;;;5.10;;
16101;SDS011;56411;52.964;10.540;2023-11-22T11:10:13;11.60;;;4.70;;
16101;SDS011;56411;52.964;10.540;2023-11-22T11:12:40;11.33;;;5.30;;
16101;SDS011;56411;52.964;10.540;2023-11-22T11:15:09;11.43;;;5.23;;
16101;SDS011;56411;52.964;10.540;2023-11-22T11:17:36;10.70;;;4.93;;
16101;SDS011;56411;52.964;10.540;2023-11-22T11:20:05;11.87;;;5.40;;
16101;SDS011;56411;52.964;10.540;2023-11-22T11:22:35;10.50;;;4.77;;
16101;SDS011;56411;52.964;10.540;2023-11-22T11:25:04;12.37;;;4.53;;
16101;SDS011;56411;52.964;10.540;2023-11-22T11:27:35;12.13;;;5.17;;
16101;SDS011;56411;52.964;10.540;2023-11-22T11:30:17;10.20;;;4.87;;
16101;SDS011;56411;52.964;10.540;2023-11-22T11:33:08;11.33;;;5.07;;
16101;SDS011;56411;52.964;10.540;2023-11-22T11:35:39;9.73;;;4.30;;
16101;SDS011;56411;52.964;10.540;2023-11-22T11:38:11;11.17;;;4.63;;
16101;SDS011;56411;52.964;10.540;2023-11-22T11:40:40;10.07;;;4.73;;
16101;SDS011;56411;52.964;10.540;2023-11-22T11:43:08;10.47;;;4.80;;
16101;SDS011;56411;52.964;10.540;2023-11-22T11:45:37;10.70;;;4.87;;
16101;SDS011;56411;52.964;10.540;2023-11-22T11:48:07;11.80;;;4.87;;
16101;SDS011;56411;52.964;10.540;2023-11-22T11:50:34;10.97;;;4.80;;
16101;SDS011;56411;52.964;10.540;2023-11-22T11:53:01;11.43;;;4.70;;
16101;SDS011;56411;52.964;10.540;2023-11-22T11:55:29;13.20;;;5.10;;
16101;SDS011;56411;52.964;10.540;2023-11-22T11:57:57;10.70;;;5.27;;
16101;SDS011;56411;52.964;10.540;2023-11-22T12:00:34;10.53;;;4.57;;
16101;SDS011;56411;52.964;10.540;2023-11-22T12:03:05;9.93;;;4.50;;
16101;SDS011;56411;52.964;10.540;2023-11-22T12:05:32;11.07;;;4.77;;
16101;SDS011;56411;52.964;10.540;2023-11-22T12:07:59;10.53;;;4.30;;
16101;SDS011;56411;52.964;10.540;2023-11-22T12:10:27;11.87;;;5.13;;
16101;SDS011;56411;52.964;10.540;2023-11-22T12:12:55;9.60;;;4.50;;
16101;SDS011;56411;52.964;10.540;2023-11-22T12:15:22;9.00;;;4.20;;
16101;SDS011;56411;52.964;10.540;2023-11-22T12:17:50;11.03;;;4.43;;
16101;SDS011;56411;52.964;10.540;2023-11-22T12:20:22;11.13;;;4.33;;
16101;SDS011;56411;52.964;10.540;2023-11-22T12:22:51;9.63;;;4.20;;
16101;SDS011;56411;52.964;10.540;2023-11-22T12:25:19;11.63;;;4.53;;
16101;SDS011;56411;52.964;10.540;2023-11-22T12:27:48;11.70;;;4.90;;
16101;SDS011;56411;52.964;10.540;2023-11-22T12:30:28;10.63;;;4.27;;
16101;SDS011;56411;52.964;10.540;2023-11-22T12:32:58;10.17;;;4.80;;
16101;SDS011;56411;52.964;10.540;2023-11-22T12:35:28;11.10;;;4.40;;
16101;SDS011;56411;52.964;10.540;2023-11-22T12:37:58;10.57;;;4.10;;
16101;SDS011;56411;52.964;10.540;2023-11-22T12:40:26;10.83;;;4.30;;
16101;SDS011;56411;52.964;10.540;2023-11-22T12:42:56;9.07;;;4.23;;
16101;SDS011;56411;52.964;10.540;2023-11-22T12:45:24;9.20;;;4.10;;
16101;SDS011;56411;52.964;10.540;2023-11-22T12:47:53;9.67;;;4.00;;
16101;SDS011;56411;52.964;10.540;2023-11-22T12:50:35;10.13;;;4.13;;
16101;SDS011;56411;52.964;10.540;2023-11-22T12:53:10;10.70;;;4.40;;
16101;SDS011;56411;52.964;10.540;2023-11-22T12:55:38;9.63;;;4.60;;
16101;SDS011;56411;52.964;10.540;2023-11-22T12:58:09;11.27;;;4.47;;
16101;SDS011;56411;52.964;10.540;2023-11-22T13:00:37;11.30;;;4.90;;
16101;SDS011;56411;52.964;10.540;2023-11-22T13:03:05;11.13;;;5.13;;
16101;SDS011;56411;52.964;10.540;2023-11-22T13:05:33;11.00;;;4.67;;
16101;SDS011;56411;52.964;10.540;2023-11-22T13:08:02;11.07;;;4.80;;
16101;SDS011;56411;52.964;10.540;2023-11-22T13:10:30;9.73;;;4.73;;
16101;SDS011;56411;52.964;10.540;2023-11-22T13:12:57;11.43;;;4.90;;
16101;SDS011;56411;52.964;10.540;2023-11-22T13:15:26;10.60;;;5.00;;
16101;SDS011;56411;52.964;10.540;2023-11-22T13:17:53;10.50;;;4.70;;
16101;SDS011;56411;52.964;10.540;2023-11-22T13:20:22;10.87;;;5.23;;
16101;SDS011;56411;52.964;10.540;2023-11-22T13:22:52;14.43;;;6.17;;
16101;SDS011;56411;52.964;10.540;2023-11-22T13:25:19;11.20;;;5.43;;
16101;SDS011;56411;52.964;10.540;2023-11-22T13:27:48;11.60;;;5.03;;
16101;SDS011;56411;52.964;10.540;2023-11-22T13:30:17;14.83;;;7.87;;
16101;SDS011;56411;52.964;10.540;2023-11-22T13:32:48;13.83;;;6.47;;
16101;SDS011;56411;52.964;10.540;2023-11-22T13:35:15;10.83;;;5.30;;
16101;SDS011;56411;52.964;10.540;2023-11-22T13:37:42;11.53;;;5.13;;
16101;SDS011;56411;52.964;10.540;2023-11-22T13:40:13;10.87;;;5.10;;
16101;SDS011;56411;52.964;10.540;2023-11-22T13:42:41;10.57;;;5.00;;
16101;SDS011;56411;52.964;10.540;2023-11-22T13:45:09;11.50;;;5.50;;
16101;SDS011;56411;52.964;10.540;2023-11-22T13:47:40;10.93;;;4.47;;
16101;SDS011;56411;52.964;10.540;2023-11-22T13:50:09;10.57;;;4.60;;
16101;SDS011;56411;52.964;10.540;2023-11-22T13:52:38;18.40;;;11.50;;
16101;SDS011;56411;52.964;10.540;2023-11-22T13:55:05;10.13;;;4.10;;
16101;SDS011;56411;52.964;10.540;2023-11-22T13:57:37;11.83;;;5.20;;
16101;SDS011;56411;52.964;10.540;2023-11-22T14:00:04;12.70;;;6.47;;
16101;SDS011;56411;52.964;10.540;2023-11-22T14:02:36;14.73;;;7.43;;
16101;SDS011;56411;52.964;10.540;2023-11-22T14:05:03;11.23;;;4.73;;
16101;SDS011;56411;52.964;10.540;2023-11-22T14:07:33;12.47;;;6.90;;
16101;SDS011;56411;52.964;10.540;2023-11-22T14:10:01;15.57;;;9.33;;
16101;SDS011;56411;52.964;10.540;2023-11-22T14:12:30;14.53;;;7.50;;
16101;SDS011;56411;52.964;10.540;2023-11-22T14:14:59;13.70;;;7.07;;
16101;SDS011;56411;52.964;10.540;2023-11-22T14:17:26;12.00;;;5.23;;
16101;SDS011;56411;52.964;10.540;2023-11-22T14:19:53;10.20;;;4.53;;
16101;SDS011;56411;52.964;10.540;2023-11-22T14:22:20;11.30;;;4.93;;
16101;SDS011;56411;52.964;10.540;2023-11-22T14:24:48;10.20;;;4.47;;
16101;SDS011;56411;52.964;10.540;2023-11-22T14:27:14;9.53;;;4.70;;